Time;durP1;ratioP1;P1;durP2;ratioP2;P2;SDS_P1;SDS_P2;PMS_P1;PMS_P2;Temp;Humidity;BMP_temperature;BMP_pressure;BME280_temperature;BME280_humidity;BME280_pressure;Samples;Min_cycle;Max_cycle;Signal;HPM_P1;HPM_P2
2022/08/10 00:01:09;;;;;;;10.23;5.72;;;24.80;99.90;;;;;;1760020;79;21119;-83
2022/08/10 00:03:40;;;;;;;6.72;4.87;;;24.80;99.90;;;;;;1739480;82;21240;-83
2022/08/10 00:06:10;;;;;;;11.97;4.30;;;24.80;99.90;;;;;;1745147;81;21218;-83
2022/08/10 00:08:42;;;;;;;6.10;3.85;;;24.80;99.90;;;;;;1733527;81;21201;-82
2022/08/10 00:11:13;;;;;;;9.23;4.50;;;24.80;99.90;;;;;;1778923;79;21071;-83
2022/08/10 00:13:45;;;;;;;7.03;4.05;;;24.80;99.90;;;;;;1714278;82;21176;-83
2022/08/10 00:16:16;;;;;;;7.30;4.58;;;24.80;99.90;;;;;;1716954;82;21169;-83
2022/08/10 00:18:47;;;;;;;6.70;5.12;;;24.80;99.90;;;;;;1731070;82;21192;-83
2022/08/10 00:21:18;;;;;;;8.33;5.85;;;24.80;99.90;;;;;;1700019;84;21221;-82
2022/08/10 00:23:50;;;;;;;7.78;4.47;;;24.80;99.90;;;;;;1699892;82;21201;-82
2022/08/10 00:26:21;;;;;;;9.70;4.87;;;24.90;99.90;;;;;;1713154;82;21224;-83
2022/08/10 00:28:53;;;;;;;6.53;4.20;;;24.90;99.90;;;;;;1718146;83;21312;-83
2022/08/10 00:31:24;;;;;;;6.55;4.50;;;25.00;99.90;;;;;;1710358;82;21161;-82
2022/08/10 00:33:55;;;;;;;6.70;5.05;;;25.00;99.90;;;;;;1727580;82;21237;-83
2022/08/10 00:36:26;;;;;;;10.65;4.65;;;25.00;99.90;;;;;;1717069;82;21244;-82
2022/08/10 00:38:58;;;;;;;7.12;4.10;;;25.00;99.90;;;;;;1733819;81;21255;-83
2022/08/10 00:41:29;;;;;;;7.12;4.17;;;25.00;99.90;;;;;;1725227;82;21603;-84
2022/08/10 00:44:00;;;;;;;6.87;4.05;;;25.10;99.90;;;;;;1738178;80;21684;-84
2022/08/10 00:46:31;;;;;;;5.90;3.98;;;25.10;99.90;;;;;;1707236;83;21118;-87
2022/08/10 00:49:02;;;;;;;8.88;4.53;;;25.10;99.90;;;;;;1723533;82;21130;-68
2022/08/10 00:51:34;;;;;;;5.87;4.15;;;25.10;99.90;;;;;;1734330;82;21557;-69
2022/08/10 00:54:06;;;;;;;8.30;3.95;;;25.10;99.90;;;;;;1754021;80;21158;-69
2022/08/10 00:56:38;;;;;;;9.10;3.62;;;25.20;99.90;;;;;;1756613;80;21186;-71
2022/08/10 00:59:11;;;;;;;7.30;3.87;;;25.20;99.90;;;;;;1729802;81;21174;-70
2022/08/10 01:01:42;;;;;;;9.85;4.10;;;25.20;99.90;;;;;;1762783;79;21681;-69
2022/08/10 01:04:15;;;;;;;5.85;3.70;;;25.20;99.90;;;;;;1775085;79;21197;-69
2022/08/10 01:06:49;;;;;;;5.70;3.58;;;25.20;99.90;;;;;;1793249;77;21220;-70
2022/08/10 01:09:23;;;;;;;10.78;3.47;;;25.20;99.90;;;;;;1756971;80;21633;-70
2022/08/10 01:11:56;;;;;;;5.37;3.40;;;25.30;99.90;;;;;;1793595;79;21959;-69
2022/08/10 01:14:31;;;;;;;6.87;3.50;;;25.30;99.90;;;;;;1788362;79;21127;-70
2022/08/10 01:17:04;;;;;;;6.75;3.75;;;25.30;99.90;;;;;;1784487;79;21116;-70
2022/08/10 01:19:37;;;;;;;8.63;3.62;;;25.40;99.90;;;;;;1793161;79;21602;-70
2022/08/10 01:22:11;;;;;;;6.47;3.58;;;25.40;99.90;;;;;;1790010;79;21198;-70
2022/08/10 01:24:44;;;;;;;7.30;4.17;;;25.40;99.90;;;;;;1792973;79;21693;-70
2022/08/10 01:27:17;;;;;;;8.75;3.65;;;25.50;99.90;;;;;;1789773;79;22062;-70
2022/08/10 01:29:53;;;;;;;7.67;3.62;;;25.50;99.90;;;;;;1791284;79;21093;-69
2022/08/10 01:32:26;;;;;;;6.37;3.05;;;25.60;99.90;;;;;;1761623;80;21563;-70
2022/08/10 01:34:59;;;;;;;4.87;3.22;;;25.60;99.90;;;;;;1763034;79;21186;-70
2022/08/10 01:37:32;;;;;;;5.67;2.50;;;25.60;99.90;;;;;;1795054;79;21139;-69
2022/08/10 01:40:06;;;;;;;6.10;2.80;;;25.70;99.90;;;;;;1793546;79;21155;-69
2022/08/10 01:42:38;;;;;;;5.72;2.58;;;25.70;99.90;;;;;;1782367;80;21626;-69
2022/08/10 01:45:11;;;;;;;3.08;2.40;;;25.70;99.90;;;;;;1787899;80;21551;-69
2022/08/10 01:50:19;;;;;;;5.97;2.42;;;25.80;99.90;;;;;;1790896;79;21166;-69
2022/08/10 01:52:53;;;;;;;8.40;2.58;;;25.90;99.90;;;;;;1784080;79;21653;-69
2022/08/10 01:55:25;;;;;;;4.25;2.95;;;25.90;99.90;;;;;;1805455;79;21618;-69
2022/08/10 01:57:58;;;;;;;7.85;2.92;;;25.90;99.90;;;;;;1759271;78;21162;-69
2022/08/10 02:00:31;;;;;;;6.90;2.65;;;25.90;99.90;;;;;;1758977;79;21200;-69
2022/08/10 02:03:03;;;;;;;5.85;2.60;;;25.90;99.90;;;;;;1783444;79;21633;-69
2022/08/10 02:05:37;;;;;;;6.78;2.95;;;26.00;99.90;;;;;;1784552;79;21619;-68
2022/08/10 02:08:11;;;;;;;8.00;2.85;;;26.00;99.90;;;;;;1759158;80;21166;-69
2022/08/10 02:10:45;;;;;;;6.87;2.62;;;26.00;99.90;;;;;;1753805;82;21693;-69
2022/08/10 02:13:18;;;;;;;7.75;2.60;;;26.10;99.90;;;;;;1753358;81;21241;-69
2022/08/10 02:15:51;;;;;;;6.65;3.17;;;26.10;99.90;;;;;;1756007;80;21666;-69
2022/08/10 02:18:25;;;;;;;6.33;2.45;;;26.20;99.90;;;;;;1787651;79;21093;-69
2022/08/10 02:20:57;;;;;;;4.08;2.30;;;26.30;99.90;;;;;;1780933;79;21109;-69
2022/08/10 02:23:31;;;;;;;5.33;2.40;;;26.30;99.90;;;;;;1792309;79;21634;-68
2022/08/10 02:26:03;;;;;;;4.83;1.80;;;26.40;99.90;;;;;;1771675;80;21146;-69
2022/08/10 02:28:36;;;;;;;6.22;2.02;;;26.40;99.90;;;;;;1786632;78;21254;-69
2022/08/10 02:31:09;;;;;;;7.15;2.17;;;26.40;99.90;;;;;;1785288;79;21184;-69
2022/08/10 02:33:42;;;;;;;7.70;2.55;;;26.40;99.90;;;;;;1791918;79;21139;-69
2022/08/10 02:36:16;;;;;;;5.17;2.27;;;26.40;99.90;;;;;;1767646;80;21198;-69
2022/08/10 02:38:49;;;;;;;3.92;2.00;;;26.50;99.90;;;;;;1747131;81;21312;-69
2022/08/10 02:41:24;;;;;;;4.28;2.02;;;26.50;99.90;;;;;;1782059;79;21232;-68
2022/08/10 02:43:59;;;;;;;5.50;2.30;;;26.50;99.90;;;;;;1774172;80;21174;-69
2022/08/10 02:46:33;;;;;;;5.30;2.15;;;26.60;99.90;;;;;;1773073;80;21174;-69
2022/08/10 02:49:07;;;;;;;7.45;2.10;;;26.60;99.90;;;;;;1807228;79;21255;-69
2022/08/10 02:51:40;;;;;;;6.03;2.58;;;26.60;99.90;;;;;;1773412;79;21153;-69
2022/08/10 02:54:14;;;;;;;5.35;1.80;;;26.70;99.90;;;;;;1772988;79;21185;-69
2022/08/10 02:56:51;;;;;;;10.32;2.25;;;26.80;99.90;;;;;;1779647;79;21149;-69
2022/08/10 02:59:24;;;;;;;5.08;1.95;;;26.80;99.90;;;;;;1780840;79;21171;-69
2022/08/10 03:01:59;;;;;;;5.55;2.35;;;26.80;99.90;;;;;;1770865;79;21131;-69
2022/08/10 03:04:32;;;;;;;7.83;1.75;;;26.80;99.90;;;;;;1771791;79;21603;-69
2022/08/10 03:07:07;;;;;;;4.85;1.92;;;26.90;99.90;;;;;;1787682;78;21336;-69
2022/08/10 03:09:41;;;;;;;7.92;1.98;;;26.90;99.90;;;;;;1677385;82;21212;-69
2022/08/10 03:12:14;;;;;;;4.37;1.98;;;27.00;99.90;;;;;;1716281;83;21706;-68
2022/08/10 03:14:48;;;;;;;4.08;1.95;;;27.10;99.90;;;;;;1712119;83;21756;-69
2022/08/10 03:17:19;;;;;;;7.00;1.70;;;27.20;99.90;;;;;;1710230;83;21286;-68
2022/08/10 03:19:53;;;;;;;6.17;1.62;;;27.30;99.90;;;;;;1714938;82;21313;-69
2022/08/10 03:22:26;;;;;;;6.62;1.80;;;27.30;99.90;;;;;;1710397;82;21675;-69
2022/08/10 03:24:58;;;;;;;7.15;1.57;;;27.30;99.90;;;;;;1716801;83;21332;-69
2022/08/10 03:27:30;;;;;;;5.08;1.55;;;27.40;99.90;;;;;;1705046;83;21184;-69
2022/08/10 03:30:01;;;;;;;5.92;1.80;;;27.40;99.90;;;;;;1718694;82;21321;-69
2022/08/10 03:32:35;;;;;;;3.42;1.55;;;27.50;99.90;;;;;;1716640;82;21160;-69
2022/08/10 03:35:08;;;;;;;3.80;1.60;;;27.60;99.90;;;;;;1710146;81;21169;-69
2022/08/10 03:37:39;;;;;;;5.97;1.60;;;27.80;99.90;;;;;;1727758;81;21270;-69
2022/08/10 03:40:10;;;;;;;3.10;1.22;;;27.90;99.90;;;;;;1740681;78;21240;-69
2022/08/10 03:42:42;;;;;;;2.75;1.40;;;28.00;99.90;;;;;;1822911;78;21154;-69
2022/08/10 03:45:14;;;;;;;4.67;1.45;;;28.10;99.90;;;;;;1808954;79;21710;-74
2022/08/10 03:47:47;;;;;;;4.33;1.85;;;28.20;99.90;;;;;;1823622;78;21671;-69
2022/08/10 03:50:19;;;;;;;5.72;1.80;;;28.40;99.90;;;;;;1808566;78;21170;-70
2022/08/10 03:52:52;;;;;;;3.75;1.10;;;28.50;99.90;;;;;;1802758;78;21649;-69
2022/08/10 03:55:24;;;;;;;2.60;1.25;;;28.50;99.90;;;;;;1784409;79;21143;-69
2022/08/10 03:57:56;;;;;;;7.33;4.40;;;28.50;99.90;;;;;;1809481;78;21900;-69
2022/08/10 04:00:29;;;;;;;4.17;1.70;;;28.50;99.90;;;;;;1805119;79;21159;-69
2022/08/10 04:03:01;;;;;;;1.75;1.05;;;28.50;99.90;;;;;;1801505;79;21092;-69
2022/08/10 04:05:36;;;;;;;4.97;1.82;;;28.60;99.90;;;;;;1800235;79;21144;-68
2022/08/10 04:08:08;;;;;;;1.77;1.10;;;28.70;99.90;;;;;;1804159;78;21631;-69
2022/08/10 04:10:39;;;;;;;3.20;1.35;;;28.80;99.90;;;;;;1836947;78;21202;-68
2022/08/10 04:13:10;;;;;;;4.47;1.80;;;28.90;99.90;;;;;;1848952;76;21139;-69
2022/08/10 04:15:41;;;;;;;3.17;0.82;;;29.00;99.90;;;;;;1853662;76;21123;-68
2022/08/10 04:18:12;;;;;;;1.95;0.80;;;29.10;99.90;;;;;;1834444;77;21192;-69
2022/08/10 04:20:46;;;;;;;3.58;1.20;;;29.20;99.90;;;;;;1837554;78;21655;-68
2022/08/10 04:23:19;;;;;;;3.08;0.95;;;29.10;99.90;;;;;;1838589;78;21143;-68
2022/08/10 04:25:51;;;;;;;5.62;1.82;;;29.10;99.90;;;;;;1837202;77;21186;-68
2022/08/10 04:28:23;;;;;;;3.12;1.07;;;29.20;99.90;;;;;;1839118;78;21131;-68
2022/08/10 04:30:56;;;;;;;4.95;2.10;;;29.20;99.90;;;;;;1837059;76;21152;-68
2022/08/10 04:33:29;;;;;;;3.72;1.27;;;29.30;99.90;;;;;;1854658;76;22059;-69
2022/08/10 04:36:02;;;;;;;2.00;0.90;;;29.30;99.90;;;;;;1834331;77;21154;-69
2022/08/10 04:38:36;;;;;;;2.45;0.75;;;29.30;99.90;;;;;;1837005;78;21066;-68
2022/08/10 04:41:07;;;;;;;2.10;0.85;;;29.40;99.90;;;;;;1838291;78;21588;-69
2022/08/10 04:43:39;;;;;;;1.27;0.70;;;29.50;99.90;;;;;;1838027;78;21132;-69
2022/08/10 04:46:10;;;;;;;2.20;0.80;;;29.60;99.90;;;;;;1852772;76;21171;-69
2022/08/10 04:48:43;;;;;;;1.50;0.68;;;29.60;99.90;;;;;;1859566;76;21099;-69
2022/08/10 04:51:17;;;;;;;2.20;1.00;;;29.60;99.90;;;;;;1814164;78;21247;-69
2022/08/10 04:53:51;;;;;;;2.67;0.80;;;29.70;99.90;;;;;;1820370;78;21714;-69
2022/08/10 04:56:23;;;;;;;2.80;1.75;;;29.90;99.80;;;;;;1854971;76;21229;-69
2022/08/10 04:58:55;;;;;;;2.33;0.78;;;30.00;99.90;;;;;;1852440;76;21155;-69
2022/08/10 05:01:27;;;;;;;2.62;1.00;;;30.00;99.90;;;;;;1850718;76;21135;-69
2022/08/10 05:03:59;;;;;;;3.77;0.90;;;30.10;99.90;;;;;;1874746;75;21113;-67
2022/08/10 05:06:32;;;;;;;1.87;0.78;;;30.00;99.90;;;;;;1882271;76;21144;-67
2022/08/10 05:09:03;;;;;;;2.25;1.42;;;30.10;99.40;;;;;;1883401;76;21166;-68
2022/08/10 05:11:35;;;;;;;2.80;0.90;;;30.10;99.90;;;;;;1884481;76;21573;-68
2022/08/10 05:14:05;;;;;;;2.58;0.80;;;30.10;99.60;;;;;;1852388;77;21715;-68
2022/08/10 05:16:36;;;;;;;2.17;0.60;;;30.20;99.10;;;;;;1880449;76;21208;-68
2022/08/10 05:19:07;;;;;;;2.15;0.60;;;30.20;99.00;;;;;;1885246;76;21146;-68
2022/08/10 05:21:38;;;;;;;2.45;0.90;;;30.40;98.40;;;;;;1884978;76;21725;-69
2022/08/10 05:24:10;;;;;;;2.62;0.80;;;30.50;98.50;;;;;;1882094;75;21152;-69
2022/08/10 05:26:41;;;;;;;1.90;0.90;;;30.60;98.00;;;;;;1883999;76;21226;-69
2022/08/10 05:29:43;;;;;;;2.70;0.88;;;30.60;98.30;;;;;;1877469;76;21177;-69
2022/08/10 05:32:16;;;;;;;3.65;0.72;;;30.80;97.60;;;;;;1873064;76;21070;-68
2022/08/10 05:34:47;;;;;;;3.15;0.68;;;30.80;97.30;;;;;;1853849;77;21146;-68
2022/08/10 05:37:19;;;;;;;1.87;0.62;;;30.80;96.80;;;;;;1851277;77;21085;-68
2022/08/10 05:39:53;;;;;;;2.67;0.80;;;30.80;97.20;;;;;;1854196;77;21646;-69
2022/08/10 05:42:25;;;;;;;2.70;0.80;;;30.70;96.90;;;;;;1857154;77;21225;-69
2022/08/10 05:45:01;;;;;;;1.77;0.70;;;30.70;96.70;;;;;;1856022;77;21157;-68
2022/08/10 05:47:32;;;;;;;1.65;0.93;;;30.80;96.60;;;;;;1857130;77;21124;-68
2022/08/10 05:50:05;;;;;;;1.40;0.60;;;30.80;97.00;;;;;;1854566;77;21216;-69
2022/08/10 05:52:36;;;;;;;2.52;0.70;;;30.90;96.00;;;;;;1857263;77;21139;-69
2022/08/10 05:55:07;;;;;;;4.28;0.82;;;31.00;96.00;;;;;;1854153;77;21099;-69
2022/08/10 05:57:39;;;;;;;3.08;1.50;;;31.00;95.50;;;;;;1857377;77;21131;-69
2022/08/10 06:00:14;;;;;;;2.58;0.98;;;30.90;96.30;;;;;;1844656;77;21213;-69
2022/08/10 06:02:48;;;;;;;3.62;1.35;;;31.00;96.30;;;;;;1855385;77;21130;-68
2022/08/10 06:05:21;;;;;;;1.87;0.78;;;31.00;96.00;;;;;;1868705;76;21056;-68
2022/08/10 06:07:54;;;;;;;1.65;0.57;;;31.00;96.20;;;;;;1852291;77;21532;-68
2022/08/10 06:10:27;;;;;;;1.70;0.57;;;31.10;95.50;;;;;;1867268;77;21613;-70
2022/08/10 06:15:36;;;;;;;1.90;0.82;;;31.00;95.60;;;;;;1864166;77;21169;-69
2022/08/10 06:18:10;;;;;;;1.60;0.53;;;30.90;96.20;;;;;;1864162;77;21240;-69
2022/08/10 06:20:46;;;;;;;1.60;0.62;;;30.90;95.40;;;;;;1852387;77;21162;-69
2022/08/10 06:23:18;;;;;;;2.80;0.82;;;30.80;95.50;;;;;;1852744;77;21134;-68
2022/08/10 06:25:48;;;;;;;2.25;0.78;;;30.80;95.90;;;;;;1867967;77;21131;-69
2022/08/10 06:28:23;;;;;;;2.12;0.60;;;30.70;95.90;;;;;;1863829;77;21079;-69
2022/08/10 06:30:56;;;;;;;1.27;0.50;;;30.70;95.90;;;;;;1868336;77;21064;-69
2022/08/10 06:33:30;;;;;;;1.25;0.60;;;30.60;95.90;;;;;;1868858;77;21091;-68
2022/08/10 06:36:03;;;;;;;2.58;0.60;;;30.60;95.40;;;;;;1867921;77;21212;-69
2022/08/10 06:38:36;;;;;;;1.00;0.50;;;30.60;96.00;;;;;;1868018;77;21115;-68
2022/08/10 06:41:09;;;;;;;2.50;0.78;;;30.70;95.90;;;;;;1867628;77;21099;-68
2022/08/10 06:43:44;;;;;;;3.83;0.70;;;30.70;95.60;;;;;;1867224;77;21118;-69
2022/08/10 06:46:17;;;;;;;1.47;0.50;;;30.70;95.60;;;;;;1867656;76;21115;-68
2022/08/10 06:48:50;;;;;;;2.80;0.50;;;30.70;95.80;;;;;;1867591;77;21118;-68
2022/08/10 06:51:23;;;;;;;1.57;0.60;;;30.60;95.20;;;;;;1866907;77;21582;-68
2022/08/10 06:53:58;;;;;;;2.67;0.82;;;30.60;96.00;;;;;;1866538;77;21231;-69
2022/08/10 06:56:32;;;;;;;3.45;1.02;;;30.60;95.90;;;;;;1868440;77;21150;-69
2022/08/10 06:59:07;;;;;;;3.23;0.97;;;30.70;95.40;;;;;;1867786;77;21169;-68
2022/08/10 07:01:41;;;;;;;3.33;0.62;;;30.70;95.30;;;;;;1855987;77;21809;-70
2022/08/10 07:04:16;;;;;;;1.32;0.57;;;30.70;95.10;;;;;;1858770;77;21602;-68
2022/08/10 07:06:49;;;;;;;1.30;0.50;;;30.60;95.60;;;;;;1882168;76;21557;-68
2022/08/10 07:09:20;;;;;;;2.42;0.62;;;30.70;95.90;;;;;;1887530;76;21166;-68
2022/08/10 07:11:52;;;;;;;4.85;1.60;;;30.70;95.20;;;;;;1887417;76;21192;-68
2022/08/10 07:14:25;;;;;;;3.50;1.10;;;30.80;95.50;;;;;;1882870;76;21119;-69
2022/08/10 07:16:58;;;;;;;2.10;0.65;;;30.80;95.30;;;;;;1886710;76;21612;-68
2022/08/10 07:19:31;;;;;;;1.37;0.60;;;30.80;95.50;;;;;;1887441;76;21182;-68
2022/08/10 07:22:05;;;;;;;2.05;0.60;;;30.80;95.10;;;;;;1883135;75;21129;-69
2022/08/10 07:24:40;;;;;;;2.60;0.90;;;30.90;95.40;;;;;;1882328;76;21150;-68
2022/08/10 07:27:12;;;;;;;1.27;0.50;;;30.90;94.60;;;;;;1887102;76;21137;-69
2022/08/10 07:29:45;;;;;;;2.33;0.88;;;30.90;94.40;;;;;;1887388;76;21216;-68
2022/08/10 07:32:19;;;;;;;1.57;0.80;;;31.00;94.70;;;;;;1886089;75;21932;-68
2022/08/10 07:34:52;;;;;;;1.55;0.80;;;31.00;94.60;;;;;;1886360;76;21133;-68
2022/08/10 07:37:26;;;;;;;3.70;0.78;;;31.00;95.00;;;;;;1887256;76;21134;-70
2022/08/10 07:39:58;;;;;;;2.22;0.78;;;31.00;94.60;;;;;;1887606;76;21173;-69
2022/08/10 07:42:33;;;;;;;2.58;0.68;;;31.00;94.10;;;;;;1886643;75;21176;-70
2022/08/10 07:45:05;;;;;;;2.37;0.55;;;31.00;94.50;;;;;;1855902;77;21537;-69
2022/08/10 07:47:38;;;;;;;1.85;0.68;;;31.00;94.70;;;;;;1867430;76;21085;-69
2022/08/10 07:50:13;;;;;;;3.80;0.98;;;31.00;94.70;;;;;;1884301;76;21600;-69
2022/08/10 07:52:46;;;;;;;3.83;1.25;;;31.10;95.10;;;;;;1886795;76;21653;-69
2022/08/10 07:55:19;;;;;;;1.72;0.70;;;31.20;94.60;;;;;;1881925;76;21717;-68
2022/08/10 07:57:54;;;;;;;5.65;0.95;;;31.30;94.50;;;;;;1877870;75;21141;-69
2022/08/10 08:00:27;;;;;;;2.02;0.82;;;31.30;94.40;;;;;;1887384;76;21154;-68
2022/08/10 08:03:00;;;;;;;2.87;0.70;;;31.30;94.30;;;;;;1884612;76;21150;-68
2022/08/10 08:05:32;;;;;;;2.87;0.72;;;31.20;94.20;;;;;;1876323;76;21119;-68
2022/08/10 08:08:07;;;;;;;2.33;0.98;;;31.10;94.00;;;;;;1873718;76;21228;-68
2022/08/10 08:10:39;;;;;;;2.42;1.10;;;31.10;94.60;;;;;;1878520;76;21208;-68
2022/08/10 08:13:11;;;;;;;3.80;1.00;;;31.20;94.60;;;;;;1878293;76;21954;-69
2022/08/10 08:15:53;;;;;;;2.62;1.50;;;31.20;94.40;;;;;;1878451;76;21122;-69
2022/08/10 08:18:29;;;;;;;3.72;2.62;;;31.20;94.30;;;;;;1874573;76;21568;-68
2022/08/10 08:21:02;;;;;;;2.00;0.75;;;31.30;93.60;;;;;;1877827;75;21170;-69
2022/08/10 08:23:36;;;;;;;1.55;0.60;;;31.30;93.50;;;;;;1873947;76;21103;-70
2022/08/10 08:26:11;;;;;;;2.25;1.00;;;31.30;93.20;;;;;;1868952;76;21205;-69
2022/08/10 08:28:45;;;;;;;4.67;0.93;;;31.30;93.90;;;;;;1878084;74;21166;-69
2022/08/10 08:31:18;;;;;;;2.05;0.62;;;31.30;93.80;;;;;;1877913;76;21090;-69
2022/08/10 08:33:49;;;;;;;2.00;0.90;;;31.30;94.00;;;;;;1866355;76;21660;-68
2022/08/10 08:36:22;;;;;;;2.17;0.90;;;31.30;94.50;;;;;;1877828;76;21138;-69
2022/08/10 08:38:54;;;;;;;4.05;2.55;;;31.30;94.80;;;;;;1877616;76;21118;-70
2022/08/10 08:41:27;;;;;;;2.22;0.90;;;31.30;95.20;;;;;;1878308;76;21280;-69
2022/08/10 08:44:02;;;;;;;1.47;0.70;;;31.30;95.00;;;;;;1875872;74;21111;-68
2022/08/10 08:46:37;;;;;;;2.55;1.07;;;31.30;95.00;;;;;;1874559;76;21591;-69
2022/08/10 08:49:10;;;;;;;3.12;0.93;;;31.20;95.00;;;;;;1876940;76;21165;-69
2022/08/10 08:51:45;;;;;;;2.40;0.75;;;31.10;95.30;;;;;;1873459;76;21264;-69
2022/08/10 08:54:19;;;;;;;2.95;0.88;;;31.10;95.10;;;;;;1873521;76;21757;-69
2022/08/10 08:56:53;;;;;;;2.10;1.00;;;31.00;95.10;;;;;;1875677;76;21579;-69
2022/08/10 08:59:26;;;;;;;2.17;1.10;;;31.00;95.20;;;;;;1876844;76;21605;-69
2022/08/10 09:02:00;;;;;;;2.40;0.90;;;31.00;95.50;;;;;;1877035;76;21208;-71
2022/08/10 09:04:33;;;;;;;3.65;1.37;;;31.00;95.60;;;;;;1871583;76;21125;-70
2022/08/10 09:07:07;;;;;;;3.35;1.12;;;31.00;95.70;;;;;;1874498;75;21134;-70
2022/08/10 09:09:42;;;;;;;2.22;1.10;;;31.00;95.90;;;;;;1869426;76;21133;-71
2022/08/10 09:12:15;;;;;;;2.87;1.20;;;31.00;95.50;;;;;;1872931;76;21150;-69
2022/08/10 09:14:49;;;;;;;1.85;1.10;;;31.10;95.10;;;;;;1847236;76;21165;-70
2022/08/10 09:17:22;;;;;;;3.25;0.95;;;31.10;95.30;;;;;;1853317;76;21207;-70
2022/08/10 09:19:56;;;;;;;1.75;0.70;;;31.10;95.60;;;;;;1871417;76;21621;-70
2022/08/10 09:22:29;;;;;;;3.70;1.25;;;31.10;95.80;;;;;;1872186;76;21083;-70
2022/08/10 09:25:02;;;;;;;3.08;1.60;;;31.00;96.00;;;;;;1847208;76;21224;-69
2022/08/10 09:27:36;;;;;;;2.80;1.30;;;31.10;96.40;;;;;;1872777;76;21645;-70
2022/08/10 09:30:09;;;;;;;4.28;2.00;;;31.00;96.00;;;;;;1874544;76;21601;-69
2022/08/10 09:32:43;;;;;;;3.47;1.52;;;31.00;95.50;;;;;;1874911;76;21200;-70
2022/08/10 09:35:17;;;;;;;4.83;1.20;;;31.00;96.20;;;;;;1869944;76;21159;-70
2022/08/10 09:37:52;;;;;;;1.55;0.93;;;30.90;95.50;;;;;;1869436;76;21161;-69
2022/08/10 09:40:27;;;;;;;3.27;1.15;;;30.90;94.50;;;;;;1866879;76;21094;-70
2022/08/10 09:43:03;;;;;;;1.22;0.62;;;30.80;94.60;;;;;;1869917;76;21118;-69
2022/08/10 09:45:37;;;;;;;2.80;1.45;;;30.80;94.60;;;;;;1866202;76;21579;-69
2022/08/10 09:48:11;;;;;;;3.75;1.10;;;30.80;95.10;;;;;;1870925;76;21224;-69
2022/08/10 09:50:44;;;;;;;2.60;1.00;;;30.80;95.30;;;;;;1867352;76;21743;-69
2022/08/10 09:53:20;;;;;;;2.37;1.20;;;30.80;96.10;;;;;;1862490;76;21137;-69
2022/08/10 09:55:53;;;;;;;2.58;1.45;;;30.80;95.90;;;;;;1860105;77;21165;-69
2022/08/10 09:58:28;;;;;;;3.12;1.70;;;30.80;96.10;;;;;;1864867;76;21205;-70
2022/08/10 10:01:01;;;;;;;3.35;1.30;;;30.80;97.70;;;;;;1873221;76;21582;-69
2022/08/10 10:03:35;;;;;;;3.50;1.37;;;30.70;96.70;;;;;;1874041;76;21091;-70
2022/08/10 10:06:11;;;;;;;4.08;1.60;;;30.60;96.60;;;;;;1876100;76;21200;-70
2022/08/10 10:08:43;;;;;;;2.60;1.70;;;30.60;96.70;;;;;;1871219;76;21135;-70
2022/08/10 10:11:16;;;;;;;3.22;1.37;;;30.50;96.40;;;;;;1868251;76;21687;-70
2022/08/10 10:13:49;;;;;;;4.65;1.30;;;30.50;96.90;;;;;;1868379;76;21161;-70
2022/08/10 10:16:24;;;;;;;4.03;1.50;;;30.40;96.70;;;;;;1874593;75;21283;-70
2022/08/10 10:18:57;;;;;;;3.37;1.62;;;30.40;96.60;;;;;;1870055;75;21135;-70
2022/08/10 10:21:31;;;;;;;2.37;1.10;;;30.40;97.00;;;;;;1873252;76;21141;-70
2022/08/10 10:24:06;;;;;;;5.47;1.65;;;30.30;97.20;;;;;;1876858;75;21368;-69
2022/08/10 10:26:43;;;;;;;2.98;1.22;;;30.30;97.20;;;;;;1876913;74;21116;-70
2022/08/10 10:29:19;;;;;;;4.25;1.57;;;30.30;97.30;;;;;;1860152;76;21650;-71
2022/08/10 10:31:53;;;;;;;4.65;1.40;;;30.20;97.40;;;;;;1855837;76;21171;-69
2022/08/10 10:34:37;;;;;;;4.28;1.72;;;30.20;97.50;;;;;;1876129;75;21596;-69
2022/08/10 10:37:09;;;;;;;3.90;1.70;;;30.20;97.90;;;;;;1877099;75;21185;-70
2022/08/10 10:39:43;;;;;;;2.92;1.80;;;30.20;99.60;;;;;;1876812;76;21187;-69
2022/08/10 10:42:16;;;;;;;3.08;1.50;;;30.10;98.50;;;;;;1878871;75;21244;-70
2022/08/10 10:44:51;;;;;;;1.92;1.10;;;30.10;98.20;;;;;;1877301;75;21137;-71
2022/08/10 10:47:45;;;;;;;4.37;1.05;;;30.00;99.10;;;;;;1877435;74;21086;-70
2022/08/10 10:50:17;;;;;;;2.25;1.10;;;29.90;99.00;;;;;;1770363;81;21206;-70
2022/08/10 10:52:50;;;;;;;2.25;0.90;;;29.80;99.80;;;;;;1719290;83;21744;-71
2022/08/10 10:55:24;;;;;;;4.58;0.90;;;29.70;99.90;;;;;;1739876;80;21638;-71
2022/08/10 10:57:58;;;;;;;2.60;0.70;;;29.60;99.90;;;;;;1762376;80;21669;-70
2022/08/10 11:00:32;;;;;;;2.45;0.70;;;29.60;99.90;;;;;;1718034;83;21634;-71
2022/08/10 11:03:05;;;;;;;1.50;0.60;;;29.40;98.80;;;;;;1751871;81;21173;-70
2022/08/10 11:05:38;;;;;;;2.10;0.60;;;29.30;99.00;;;;;;1750496;80;21258;-71
2022/08/10 11:08:11;;;;;;;3.33;0.80;;;29.30;99.30;;;;;;1747720;82;21184;-71
2022/08/10 11:10:58;;;;;;;2.55;0.70;;;29.10;99.60;;;;;;1747516;81;21093;-71
2022/08/10 11:13:33;;;;;;;3.22;1.10;;;29.00;99.90;;;;;;1746879;80;21217;-70
2022/08/10 11:16:07;;;;;;;1.82;0.80;;;28.90;99.90;;;;;;1776539;79;21264;-70
2022/08/10 11:18:41;;;;;;;3.17;0.70;;;28.90;99.90;;;;;;1777805;80;21214;-69
2022/08/10 11:21:14;;;;;;;2.60;0.70;;;28.80;99.90;;;;;;1776491;80;21162;-69
2022/08/10 11:23:48;;;;;;;2.15;0.78;;;28.70;99.90;;;;;;1778627;79;21629;-70
2022/08/10 11:26:40;;;;;;;3.33;0.93;;;28.70;99.90;;;;;;1768847;80;21177;-70
2022/08/10 11:29:14;;;;;;;4.40;1.20;;;28.60;99.90;;;;;;1831205;77;21838;-70
2022/08/10 11:31:47;;;;;;;2.40;1.10;;;28.60;99.90;;;;;;1846799;77;21636;-70
2022/08/10 11:34:21;;;;;;;3.20;0.90;;;28.60;99.90;;;;;;1847131;77;21863;-70
2022/08/10 11:36:56;;;;;;;4.20;1.70;;;28.50;99.90;;;;;;1835581;77;21172;-71
2022/08/10 11:39:29;;;;;;;2.30;0.95;;;28.40;99.90;;;;;;1822811;78;21610;-70
2022/08/10 11:42:02;;;;;;;3.35;0.90;;;28.40;99.90;;;;;;1832444;77;21223;-70
2022/08/10 11:44:37;;;;;;;2.87;1.30;;;28.40;99.90;;;;;;1866998;76;21205;-70
2022/08/10 11:47:11;;;;;;;1.55;0.80;;;28.30;99.90;;;;;;1857657;76;21202;-70
2022/08/10 11:49:44;;;;;;;2.30;0.90;;;28.30;99.90;;;;;;1842439;76;21320;-70
2022/08/10 11:52:17;;;;;;;3.20;1.00;;;28.20;99.90;;;;;;1858193;76;21202;-70
2022/08/10 11:54:51;;;;;;;2.58;1.05;;;28.20;99.90;;;;;;1803932;78;21181;-69
2022/08/10 11:57:24;;;;;;;4.97;1.32;;;28.20;99.90;;;;;;1814452;78;21702;-70
2022/08/10 12:00:00;;;;;;;3.75;1.15;;;28.10;99.90;;;;;;1811797;78;21276;-70
2022/08/10 12:02:33;;;;;;;3.87;1.20;;;28.10;99.90;;;;;;1809092;78;21546;-70
2022/08/10 12:05:25;;;;;;;2.35;1.40;;;28.00;99.90;;;;;;1813590;78;21077;-70
2022/08/10 12:08:00;;;;;;;2.10;1.05;;;28.00;99.90;;;;;;1826304;77;21133;-69
2022/08/10 12:10:33;;;;;;;3.45;1.92;;;28.00;99.90;;;;;;1820688;78;21152;-70
2022/08/10 12:13:08;;;;;;;4.35;1.90;;;27.90;99.90;;;;;;1822839;77;21211;-70
2022/08/10 12:15:41;;;;;;;2.55;1.50;;;27.90;99.90;;;;;;1841301;77;21646;-71
2022/08/10 12:18:15;;;;;;;4.40;1.12;;;27.90;99.90;;;;;;1822816;78;21236;-70
2022/08/10 12:20:50;;;;;;;2.62;1.07;;;27.80;99.90;;;;;;1826071;78;21150;-69
2022/08/10 12:23:23;;;;;;;3.52;1.07;;;27.80;99.90;;;;;;1822042;78;21122;-70
2022/08/10 12:25:56;;;;;;;3.12;1.02;;;27.80;99.90;;;;;;1818477;78;21226;-70
2022/08/10 12:28:39;;;;;;;2.37;1.00;;;27.80;99.90;;;;;;1819616;78;21169;-70
2022/08/10 12:31:13;;;;;;;3.47;1.90;;;27.70;99.90;;;;;;1832532;77;21528;-69
2022/08/10 12:33:47;;;;;;;3.35;1.25;;;27.70;99.90;;;;;;1834673;77;21664;-70
2022/08/10 12:36:21;;;;;;;3.75;1.42;;;27.60;99.90;;;;;;1807409;77;21638;-70
2022/08/10 12:38:55;;;;;;;2.98;1.52;;;27.60;99.90;;;;;;1829983;77;21150;-70
2022/08/10 12:41:30;;;;;;;2.77;1.55;;;27.60;99.90;;;;;;1831285;77;21239;-71
2022/08/10 12:44:05;;;;;;;3.45;1.50;;;27.60;99.90;;;;;;1830217;77;21667;-69
2022/08/10 12:46:40;;;;;;;2.85;1.40;;;27.60;99.90;;;;;;1832757;77;21170;-71
2022/08/10 12:49:13;;;;;;;8.53;1.72;;;27.60;99.90;;;;;;1823409;78;21251;-70
2022/08/10 12:51:47;;;;;;;3.80;1.70;;;27.60;99.90;;;;;;1824120;78;21534;-71
2022/08/10 12:54:20;;;;;;;7.95;1.47;;;27.60;99.90;;;;;;1822085;78;21230;-71
2022/08/10 12:56:55;;;;;;;4.35;1.50;;;27.60;99.90;;;;;;1823272;77;21138;-69
2022/08/10 12:59:28;;;;;;;3.45;1.62;;;27.50;99.90;;;;;;1829307;77;21737;-71
2022/08/10 13:02:00;;;;;;;2.47;1.20;;;27.50;99.90;;;;;;1817133;78;21205;-70
2022/08/10 13:04:34;;;;;;;3.47;1.62;;;27.50;99.90;;;;;;1822412;78;21088;-72
2022/08/10 13:07:08;;;;;;;4.87;1.32;;;27.50;99.90;;;;;;1838075;76;22011;-85
2022/08/10 13:09:41;;;;;;;4.22;1.40;;;27.50;99.90;;;;;;1836366;75;21156;-83
2022/08/10 13:12:16;;;;;;;3.17;1.30;;;27.40;99.90;;;;;;1804370;78;21137;-81
2022/08/10 13:14:50;;;;;;;4.17;1.67;;;27.40;99.90;;;;;;1830927;77;21209;-82
2022/08/10 13:17:26;;;;;;;4.22;1.77;;;27.40;99.90;;;;;;1800751;78;21225;-86
2022/08/10 13:20:03;;;;;;;6.30;1.60;;;27.40;99.90;;;;;;1815686;77;21214;-84
2022/08/10 13:22:38;;;;;;;2.50;1.50;;;27.50;99.90;;;;;;1792929;78;21252;-82